Strona główna
METAR-TAF:

METAR-TAF

Lotnisko :

Port lotniczy Mediolan-Malpensa

Mediolan, Włochy

Szerokość geograficzna: 45-37N, Długość geograficzna: 008-44E, wysokość: 234 m

Aktualna obserwacja pogody

Raport powstał 35 minut temu, godzina 00:50 UTC
Wiatr 7 kt od północ
Temperatura 8°C
Wilgotność 61%
Ciśnienie 1024 hPa
Widzialność 10 km lub więcej
Brak chmur poniżej 1500 m i brak chmur cumulonimbus

METAR: LIMC 050050Z 35007KT CAVOK 08/01 Q1024 NOSIG

czas: 03:25 (01:25 UTC)

Prognoza

Raport powstał 2 godziny i 25 minut temu, godzina 23:00 UTC
Prognoza ważna od 05 godzina 00 UTC do 06 godzina 06 UTC
Wiatr 5 kt z kierunków zmiennych
Widzialność 10 km lub więcej
Brak chmur poniżej 1500 m i brak chmur cumulonimbus

TAF: LIMC 042300Z 0500/0606 VRB05KT CAVOK

Obserwacja i prognoza pogody dla ponad 4000 lotnisk (raport METAR i TAF).

Dostępne stacje oznaczono żółtymi i czerwonymi punktami na mapie.

Najedź kursorem aby zobaczyć nazwę stacji.

Kliknij aby zobaczyć obserwacje i prognozy pogody.

Aby zmienić mapę: kliknij na zielony przycisk z czarnym krzyżykiem, aby powiększyć; na zielony przycisk z myślnikiem, aby pomniejszyć; na zielone strzałki, aby przejść do map sąsiednich.


METAR-TAF: